sensor_id;sensor_type;location;lat;lon;timestamp;P1;durP1;ratioP1;P2;durP2;ratioP2
66593;SDS011;53450;42.584;23.366;2023-09-30T00:00:58;15.95;;;4.95;;
66593;SDS011;53450;42.584;23.366;2023-09-30T00:03:23;9.98;;;4.05;;
66593;SDS011;53450;42.584;23.366;2023-09-30T00:05:49;13.60;;;4.15;;
66593;SDS011;53450;42.584;23.366;2023-09-30T00:08:15;16.35;;;4.38;;
66593;SDS011;53450;42.584;23.366;2023-09-30T00:10:40;9.18;;;4.50;;
66593;SDS011;53450;42.584;23.366;2023-09-30T00:13:06;16.88;;;4.85;;
66593;SDS011;53450;42.584;23.366;2023-09-30T00:15:35;14.63;;;4.82;;
66593;SDS011;53450;42.584;23.366;2023-09-30T00:18:00;21.40;;;7.07;;
66593;SDS011;53450;42.584;23.366;2023-09-30T00:20:29;7.03;;;4.40;;
66593;SDS011;53450;42.584;23.366;2023-09-30T00:22:55;16.15;;;4.72;;
66593;SDS011;53450;42.584;23.366;2023-09-30T00:25:21;15.15;;;4.65;;
66593;SDS011;53450;42.584;23.366;2023-09-30T00:27:47;10.55;;;4.88;;
66593;SDS011;53450;42.584;23.366;2023-09-30T00:30:13;8.25;;;5.00;;
66593;SDS011;53450;42.584;23.366;2023-09-30T00:32:39;10.75;;;4.82;;
66593;SDS011;53450;42.584;23.366;2023-09-30T00:35:05;6.75;;;4.22;;
66593;SDS011;53450;42.584;23.366;2023-09-30T00:37:39;15.23;;;4.75;;
66593;SDS011;53450;42.584;23.366;2023-09-30T00:40:06;19.55;;;6.15;;
66593;SDS011;53450;42.584;23.366;2023-09-30T00:42:40;8.82;;;4.70;;
66593;SDS011;53450;42.584;23.366;2023-09-30T00:45:07;9.95;;;4.50;;
66593;SDS011;53450;42.584;23.366;2023-09-30T00:47:36;6.32;;;4.22;;
66593;SDS011;53450;42.584;23.366;2023-09-30T00:50:03;12.65;;;4.97;;
66593;SDS011;53450;42.584;23.366;2023-09-30T00:52:35;8.77;;;4.43;;
66593;SDS011;53450;42.584;23.366;2023-09-30T00:55:03;15.15;;;4.95;;
66593;SDS011;53450;42.584;23.366;2023-09-30T00:57:31;8.00;;;4.88;;
66593;SDS011;53450;42.584;23.366;2023-09-30T00:59:57;8.32;;;4.78;;
66593;SDS011;53450;42.584;23.366;2023-09-30T01:02:23;12.65;;;4.95;;
66593;SDS011;53450;42.584;23.366;2023-09-30T01:04:49;11.25;;;4.80;;
66593;SDS011;53450;42.584;23.366;2023-09-30T01:07:15;7.80;;;5.32;;
66593;SDS011;53450;42.584;23.366;2023-09-30T01:09:41;17.48;;;5.03;;
66593;SDS011;53450;42.584;23.366;2023-09-30T01:12:07;13.73;;;5.78;;
66593;SDS011;53450;42.584;23.366;2023-09-30T01:14:34;16.42;;;5.22;;
66593;SDS011;53450;42.584;23.366;2023-09-30T01:17:00;12.13;;;5.18;;
66593;SDS011;53450;42.584;23.366;2023-09-30T01:19:27;19.63;;;5.43;;
66593;SDS011;53450;42.584;23.366;2023-09-30T01:21:54;7.80;;;4.80;;
66593;SDS011;53450;42.584;23.366;2023-09-30T01:24:24;16.98;;;4.78;;
66593;SDS011;53450;42.584;23.366;2023-09-30T01:26:55;11.63;;;4.97;;
66593;SDS011;53450;42.584;23.366;2023-09-30T01:29:21;13.73;;;4.70;;
66593;SDS011;53450;42.584;23.366;2023-09-30T01:31:47;14.05;;;5.05;;
66593;SDS011;53450;42.584;23.366;2023-09-30T01:34:18;15.13;;;4.75;;
66593;SDS011;53450;42.584;23.366;2023-09-30T01:36:44;8.73;;;5.22;;
66593;SDS011;53450;42.584;23.366;2023-09-30T01:39:10;11.10;;;4.50;;
66593;SDS011;53450;42.584;23.366;2023-09-30T01:41:39;9.90;;;4.75;;
66593;SDS011;53450;42.584;23.366;2023-09-30T01:44:06;10.77;;;4.47;;
66593;SDS011;53450;42.584;23.366;2023-09-30T01:46:32;16.50;;;4.70;;
66593;SDS011;53450;42.584;23.366;2023-09-30T01:48:59;7.70;;;4.47;;
66593;SDS011;53450;42.584;23.366;2023-09-30T01:51:24;19.70;;;4.70;;
66593;SDS011;53450;42.584;23.366;2023-09-30T01:53:50;8.73;;;4.47;;
66593;SDS011;53450;42.584;23.366;2023-09-30T01:56:16;9.30;;;4.03;;
66593;SDS011;53450;42.584;23.366;2023-09-30T01:58:41;14.82;;;4.53;;
66593;SDS011;53450;42.584;23.366;2023-09-30T02:01:08;12.18;;;4.30;;
66593;SDS011;53450;42.584;23.366;2023-09-30T02:03:34;11.73;;;4.30;;
66593;SDS011;53450;42.584;23.366;2023-09-30T02:05:59;9.68;;;4.30;;
66593;SDS011;53450;42.584;23.366;2023-09-30T02:08:25;18.38;;;5.22;;
66593;SDS011;53450;42.584;23.366;2023-09-30T02:10:51;10.50;;;4.38;;
66593;SDS011;53450;42.584;23.366;2023-09-30T02:13:19;15.10;;;5.00;;
66593;SDS011;53450;42.584;23.366;2023-09-30T02:15:45;11.98;;;4.25;;
66593;SDS011;53450;42.584;23.366;2023-09-30T02:18:11;17.38;;;4.65;;
66593;SDS011;53450;42.584;23.366;2023-09-30T02:20:37;9.95;;;3.88;;
66593;SDS011;53450;42.584;23.366;2023-09-30T02:23:09;13.18;;;4.10;;
66593;SDS011;53450;42.584;23.366;2023-09-30T02:25:38;6.95;;;3.90;;
66593;SDS011;53450;42.584;23.366;2023-09-30T02:28:04;13.57;;;4.00;;
66593;SDS011;53450;42.584;23.366;2023-09-30T02:30:31;18.08;;;4.13;;
66593;SDS011;53450;42.584;23.366;2023-09-30T02:32:58;15.52;;;3.90;;
66593;SDS011;53450;42.584;23.366;2023-09-30T02:35:25;7.38;;;4.13;;
66593;SDS011;53450;42.584;23.366;2023-09-30T02:37:51;15.13;;;4.15;;
66593;SDS011;53450;42.584;23.366;2023-09-30T02:40:17;9.27;;;4.40;;
66593;SDS011;53450;42.584;23.366;2023-09-30T02:42:43;8.80;;;4.28;;
66593;SDS011;53450;42.584;23.366;2023-09-30T02:45:10;9.90;;;3.90;;
66593;SDS011;53450;42.584;23.366;2023-09-30T02:47:36;7.47;;;4.18;;
66593;SDS011;53450;42.584;23.366;2023-09-30T02:50:07;11.32;;;4.43;;
66593;SDS011;53450;42.584;23.366;2023-09-30T02:52:36;24.23;;;4.22;;
66593;SDS011;53450;42.584;23.366;2023-09-30T02:55:04;8.40;;;3.80;;
66593;SDS011;53450;42.584;23.366;2023-09-30T02:57:30;13.15;;;4.57;;
66593;SDS011;53450;42.584;23.366;2023-09-30T02:59:56;9.55;;;5.18;;
66593;SDS011;53450;42.584;23.366;2023-09-30T03:02:24;11.23;;;4.38;;
66593;SDS011;53450;42.584;23.366;2023-09-30T03:04:49;5.05;;;4.13;;
66593;SDS011;53450;42.584;23.366;2023-09-30T03:07:17;10.85;;;4.10;;
66593;SDS011;53450;42.584;23.366;2023-09-30T03:09:44;16.73;;;4.05;;
66593;SDS011;53450;42.584;23.366;2023-09-30T03:12:12;8.55;;;3.90;;
66593;SDS011;53450;42.584;23.366;2023-09-30T03:14:37;13.63;;;3.90;;
66593;SDS011;53450;42.584;23.366;2023-09-30T03:17:03;10.82;;;4.20;;
66593;SDS011;53450;42.584;23.366;2023-09-30T03:19:29;11.95;;;6.30;;
66593;SDS011;53450;42.584;23.366;2023-09-30T03:21:54;11.85;;;4.57;;
66593;SDS011;53450;42.584;23.366;2023-09-30T03:24:20;8.68;;;4.43;;
66593;SDS011;53450;42.584;23.366;2023-09-30T03:26:46;5.22;;;4.00;;
66593;SDS011;53450;42.584;23.366;2023-09-30T03:29:12;8.88;;;4.13;;
66593;SDS011;53450;42.584;23.366;2023-09-30T03:31:39;12.50;;;4.05;;
66593;SDS011;53450;42.584;23.366;2023-09-30T03:34:05;10.77;;;4.38;;
66593;SDS011;53450;42.584;23.366;2023-09-30T03:36:31;13.15;;;4.50;;
66593;SDS011;53450;42.584;23.366;2023-09-30T03:38:57;12.50;;;4.55;;
66593;SDS011;53450;42.584;23.366;2023-09-30T03:41:25;17.80;;;4.65;;
66593;SDS011;53450;42.584;23.366;2023-09-30T03:43:51;8.10;;;3.70;;
66593;SDS011;53450;42.584;23.366;2023-09-30T03:46:17;9.20;;;3.90;;
66593;SDS011;53450;42.584;23.366;2023-09-30T03:48:43;11.50;;;3.75;;
66593;SDS011;53450;42.584;23.366;2023-09-30T03:51:10;7.05;;;3.88;;
66593;SDS011;53450;42.584;23.366;2023-09-30T03:53:42;8.90;;;4.28;;
66593;SDS011;53450;42.584;23.366;2023-09-30T03:56:08;12.45;;;4.15;;
66593;SDS011;53450;42.584;23.366;2023-09-30T03:58:39;12.90;;;3.97;;
66593;SDS011;53450;42.584;23.366;2023-09-30T04:01:06;7.47;;;3.97;;
66593;SDS011;53450;42.584;23.366;2023-09-30T04:03:33;8.63;;;4.07;;
66593;SDS011;53450;42.584;23.366;2023-09-30T04:06:01;9.75;;;4.30;;
66593;SDS011;53450;42.584;23.366;2023-09-30T04:08:27;10.35;;;3.67;;
66593;SDS011;53450;42.584;23.366;2023-09-30T04:10:54;12.35;;;3.53;;
66593;SDS011;53450;42.584;23.366;2023-09-30T04:13:19;10.63;;;4.30;;
66593;SDS011;53450;42.584;23.366;2023-09-30T04:15:46;17.55;;;4.25;;
66593;SDS011;53450;42.584;23.366;2023-09-30T04:18:12;13.60;;;4.20;;
66593;SDS011;53450;42.584;23.366;2023-09-30T04:20:38;7.55;;;3.55;;
66593;SDS011;53450;42.584;23.366;2023-09-30T04:23:05;4.80;;;3.45;;
66593;SDS011;53450;42.584;23.366;2023-09-30T04:25:32;9.32;;;3.28;;
66593;SDS011;53450;42.584;23.366;2023-09-30T04:27:58;8.10;;;3.75;;
66593;SDS011;53450;42.584;23.366;2023-09-30T04:30:24;10.73;;;4.22;;
66593;SDS011;53450;42.584;23.366;2023-09-30T04:32:49;11.98;;;3.72;;
66593;SDS011;53450;42.584;23.366;2023-09-30T04:35:15;13.35;;;4.10;;
66593;SDS011;53450;42.584;23.366;2023-09-30T04:38:06;18.80;;;4.23;;
66593;SDS011;53450;42.584;23.366;2023-09-30T04:40:57;8.23;;;4.07;;
66593;SDS011;53450;42.584;23.366;2023-09-30T04:43:26;12.20;;;4.93;;
66593;SDS011;53450;42.584;23.366;2023-09-30T04:45:55;6.80;;;3.92;;
66593;SDS011;53450;42.584;23.366;2023-09-30T04:48:25;10.48;;;4.10;;
66593;SDS011;53450;42.584;23.366;2023-09-30T04:50:51;14.48;;;3.72;;
66593;SDS011;53450;42.584;23.366;2023-09-30T04:53:17;12.38;;;4.00;;
66593;SDS011;53450;42.584;23.366;2023-09-30T04:55:43;6.78;;;4.07;;
66593;SDS011;53450;42.584;23.366;2023-09-30T04:58:10;10.48;;;4.40;;
66593;SDS011;53450;42.584;23.366;2023-09-30T05:00:36;27.88;;;5.28;;
66593;SDS011;53450;42.584;23.366;2023-09-30T05:03:02;12.70;;;4.97;;
66593;SDS011;53450;42.584;23.366;2023-09-30T05:05:28;19.17;;;6.65;;
66593;SDS011;53450;42.584;23.366;2023-09-30T05:07:54;10.50;;;5.43;;
66593;SDS011;53450;42.584;23.366;2023-09-30T05:10:19;13.68;;;5.85;;
66593;SDS011;53450;42.584;23.366;2023-09-30T05:12:45;8.85;;;5.13;;
66593;SDS011;53450;42.584;23.366;2023-09-30T05:15:12;10.50;;;4.63;;
66593;SDS011;53450;42.584;23.366;2023-09-30T05:17:39;15.77;;;4.90;;
66593;SDS011;53450;42.584;23.366;2023-09-30T05:20:05;15.32;;;5.43;;
66593;SDS011;53450;42.584;23.366;2023-09-30T05:22:35;14.57;;;6.22;;
66593;SDS011;53450;42.584;23.366;2023-09-30T05:25:00;13.45;;;5.47;;
66593;SDS011;53450;42.584;23.366;2023-09-30T05:27:26;10.00;;;5.13;;
66593;SDS011;53450;42.584;23.366;2023-09-30T05:29:52;15.90;;;5.13;;
66593;SDS011;53450;42.584;23.366;2023-09-30T05:32:18;18.52;;;4.63;;
66593;SDS011;53450;42.584;23.366;2023-09-30T05:34:47;13.23;;;4.68;;
66593;SDS011;53450;42.584;23.366;2023-09-30T05:37:13;17.15;;;5.30;;
66593;SDS011;53450;42.584;23.366;2023-09-30T05:39:39;18.90;;;6.18;;
66593;SDS011;53450;42.584;23.366;2023-09-30T05:42:05;16.85;;;4.88;;
66593;SDS011;53450;42.584;23.366;2023-09-30T05:44:32;18.77;;;5.13;;
66593;SDS011;53450;42.584;23.366;2023-09-30T05:46:58;10.30;;;5.50;;
66593;SDS011;53450;42.584;23.366;2023-09-30T05:49:25;20.45;;;5.18;;
66593;SDS011;53450;42.584;23.366;2023-09-30T05:51:51;11.68;;;4.97;;
66593;SDS011;53450;42.584;23.366;2023-09-30T05:54:16;12.23;;;4.82;;
66593;SDS011;53450;42.584;23.366;2023-09-30T05:56:42;13.18;;;4.60;;
66593;SDS011;53450;42.584;23.366;2023-09-30T05:59:08;14.30;;;5.78;;
66593;SDS011;53450;42.584;23.366;2023-09-30T06:01:34;19.80;;;6.18;;
66593;SDS011;53450;42.584;23.366;2023-09-30T06:04:01;13.82;;;4.57;;
66593;SDS011;53450;42.584;23.366;2023-09-30T06:06:27;17.40;;;5.10;;
66593;SDS011;53450;42.584;23.366;2023-09-30T06:08:56;19.83;;;4.82;;
66593;SDS011;53450;42.584;23.366;2023-09-30T06:11:25;12.60;;;3.85;;
66593;SDS011;53450;42.584;23.366;2023-09-30T06:13:54;8.13;;;4.00;;
66593;SDS011;53450;42.584;23.366;2023-09-30T06:16:20;8.38;;;4.22;;
66593;SDS011;53450;42.584;23.366;2023-09-30T06:18:46;12.60;;;4.35;;
66593;SDS011;53450;42.584;23.366;2023-09-30T06:21:12;14.75;;;4.60;;
66593;SDS011;53450;42.584;23.366;2023-09-30T06:23:40;18.83;;;5.00;;
66593;SDS011;53450;42.584;23.366;2023-09-30T06:26:06;12.23;;;4.85;;
66593;SDS011;53450;42.584;23.366;2023-09-30T06:28:32;17.20;;;4.50;;
66593;SDS011;53450;42.584;23.366;2023-09-30T06:30:59;16.52;;;4.90;;
66593;SDS011;53450;42.584;23.366;2023-09-30T06:33:25;13.95;;;5.90;;
66593;SDS011;53450;42.584;23.366;2023-09-30T06:35:50;29.23;;;5.93;;
66593;SDS011;53450;42.584;23.366;2023-09-30T06:38:19;32.42;;;5.63;;
66593;SDS011;53450;42.584;23.366;2023-09-30T06:40:45;16.50;;;4.10;;
66593;SDS011;53450;42.584;23.366;2023-09-30T06:43:14;14.35;;;4.50;;
66593;SDS011;53450;42.584;23.366;2023-09-30T06:45:43;15.45;;;4.93;;
66593;SDS011;53450;42.584;23.366;2023-09-30T06:48:10;20.75;;;5.05;;
66593;SDS011;53450;42.584;23.366;2023-09-30T06:50:43;11.73;;;4.63;;
66593;SDS011;53450;42.584;23.366;2023-09-30T06:53:10;14.57;;;4.90;;
66593;SDS011;53450;42.584;23.366;2023-09-30T06:55:39;12.32;;;4.43;;
66593;SDS011;53450;42.584;23.366;2023-09-30T06:58:05;17.20;;;4.90;;
66593;SDS011;53450;42.584;23.366;2023-09-30T07:00:33;26.02;;;4.75;;
66593;SDS011;53450;42.584;23.366;2023-09-30T07:03:00;12.60;;;4.50;;
66593;SDS011;53450;42.584;23.366;2023-09-30T07:05:26;19.25;;;4.65;;
66593;SDS011;53450;42.584;23.366;2023-09-30T07:07:53;21.48;;;4.88;;
66593;SDS011;53450;42.584;23.366;2023-09-30T07:10:19;22.13;;;4.97;;
66593;SDS011;53450;42.584;23.366;2023-09-30T07:12:44;16.98;;;4.05;;
66593;SDS011;53450;42.584;23.366;2023-09-30T07:15:12;13.18;;;4.57;;
66593;SDS011;53450;42.584;23.366;2023-09-30T07:17:42;16.80;;;4.97;;
66593;SDS011;53450;42.584;23.366;2023-09-30T07:20:08;13.60;;;3.95;;
66593;SDS011;53450;42.584;23.366;2023-09-30T07:22:35;12.77;;;4.20;;
66593;SDS011;53450;42.584;23.366;2023-09-30T07:25:03;16.52;;;4.57;;
66593;SDS011;53450;42.584;23.366;2023-09-30T07:27:29;10.68;;;4.28;;
66593;SDS011;53450;42.584;23.366;2023-09-30T07:29:55;9.07;;;3.97;;
66593;SDS011;53450;42.584;23.366;2023-09-30T07:32:21;21.38;;;4.82;;
66593;SDS011;53450;42.584;23.366;2023-09-30T07:34:50;13.30;;;4.43;;
66593;SDS011;53450;42.584;23.366;2023-09-30T07:37:16;13.38;;;4.90;;
66593;SDS011;53450;42.584;23.366;2023-09-30T07:39:43;20.05;;;5.78;;
66593;SDS011;53450;42.584;23.366;2023-09-30T07:42:09;10.32;;;4.55;;
66593;SDS011;53450;42.584;23.366;2023-09-30T07:44:35;14.05;;;4.65;;
66593;SDS011;53450;42.584;23.366;2023-09-30T07:47:04;16.77;;;4.57;;
66593;SDS011;53450;42.584;23.366;2023-09-30T07:49:31;17.10;;;4.90;;
66593;SDS011;53450;42.584;23.366;2023-09-30T07:52:04;11.10;;;4.70;;
66593;SDS011;53450;42.584;23.366;2023-09-30T07:54:29;13.32;;;4.70;;
66593;SDS011;53450;42.584;23.366;2023-09-30T07:56:55;14.40;;;3.97;;
66593;SDS011;53450;42.584;23.366;2023-09-30T07:59:20;9.82;;;4.50;;
66593;SDS011;53450;42.584;23.366;2023-09-30T08:01:50;13.55;;;4.70;;
66593;SDS011;53450;42.584;23.366;2023-09-30T08:04:18;19.70;;;5.88;;
66593;SDS011;53450;42.584;23.366;2023-09-30T08:06:44;12.20;;;4.18;;
66593;SDS011;53450;42.584;23.366;2023-09-30T08:09:10;14.52;;;5.47;;
66593;SDS011;53450;42.584;23.366;2023-09-30T08:11:38;16.13;;;5.25;;
66593;SDS011;53450;42.584;23.366;2023-09-30T08:14:04;15.73;;;5.20;;
66593;SDS011;53450;42.584;23.366;2023-09-30T08:16:38;10.52;;;4.93;;
66593;SDS011;53450;42.584;23.366;2023-09-30T08:19:04;14.73;;;4.90;;
66593;SDS011;53450;42.584;23.366;2023-09-30T08:21:30;12.98;;;5.13;;
66593;SDS011;53450;42.584;23.366;2023-09-30T08:23:56;12.23;;;5.38;;
66593;SDS011;53450;42.584;23.366;2023-09-30T08:26:22;17.73;;;6.00;;
66593;SDS011;53450;42.584;23.366;2023-09-30T08:28:48;22.05;;;6.65;;
66593;SDS011;53450;42.584;23.366;2023-09-30T08:31:14;18.10;;;7.07;;
66593;SDS011;53450;42.584;23.366;2023-09-30T08:33:39;22.20;;;7.85;;
66593;SDS011;53450;42.584;23.366;2023-09-30T08:36:08;21.05;;;8.68;;
66593;SDS011;53450;42.584;23.366;2023-09-30T08:38:35;17.85;;;8.90;;
66593;SDS011;53450;42.584;23.366;2023-09-30T08:41:02;18.42;;;7.88;;
66593;SDS011;53450;42.584;23.366;2023-09-30T08:43:28;17.15;;;7.72;;
66593;SDS011;53450;42.584;23.366;2023-09-30T08:45:56;21.95;;;7.30;;
66593;SDS011;53450;42.584;23.366;2023-09-30T08:48:23;19.38;;;7.30;;
66593;SDS011;53450;42.584;23.366;2023-09-30T08:50:52;46.15;;;16.50;;
66593;SDS011;53450;42.584;23.366;2023-09-30T08:53:19;19.42;;;7.63;;
66593;SDS011;53450;42.584;23.366;2023-09-30T08:55:46;14.13;;;8.15;;
66593;SDS011;53450;42.584;23.366;2023-09-30T08:58:13;18.13;;;7.43;;
66593;SDS011;53450;42.584;23.366;2023-09-30T09:00:39;26.42;;;6.57;;
66593;SDS011;53450;42.584;23.366;2023-09-30T09:03:08;24.23;;;6.18;;
66593;SDS011;53450;42.584;23.366;2023-09-30T09:05:34;24.25;;;8.68;;
66593;SDS011;53450;42.584;23.366;2023-09-30T09:08:00;22.67;;;6.60;;
66593;SDS011;53450;42.584;23.366;2023-09-30T09:10:25;21.00;;;6.47;;
66593;SDS011;53450;42.584;23.366;2023-09-30T09:12:58;11.38;;;5.18;;
66593;SDS011;53450;42.584;23.366;2023-09-30T09:15:25;13.80;;;5.85;;
66593;SDS011;53450;42.584;23.366;2023-09-30T09:17:52;10.60;;;5.10;;
66593;SDS011;53450;42.584;23.366;2023-09-30T09:20:19;13.30;;;5.22;;
66593;SDS011;53450;42.584;23.366;2023-09-30T09:22:45;14.98;;;5.97;;
66593;SDS011;53450;42.584;23.366;2023-09-30T09:25:12;10.65;;;5.68;;
66593;SDS011;53450;42.584;23.366;2023-09-30T09:27:38;14.90;;;5.50;;
66593;SDS011;53450;42.584;23.366;2023-09-30T09:32:52;10.90;;;6.10;;
66593;SDS011;53450;42.584;23.366;2023-09-30T09:35:24;8.15;;;5.53;;
66593;SDS011;53450;42.584;23.366;2023-09-30T09:40:37;6.90;;;4.80;;
66593;SDS011;53450;42.584;23.366;2023-09-30T09:43:05;19.33;;;6.30;;
66593;SDS011;53450;42.584;23.366;2023-09-30T09:45:34;12.13;;;5.47;;
66593;SDS011;53450;42.584;23.366;2023-09-30T09:48:01;19.08;;;5.43;;
66593;SDS011;53450;42.584;23.366;2023-09-30T09:50:29;9.32;;;4.38;;
66593;SDS011;53450;42.584;23.366;2023-09-30T09:52:58;10.70;;;4.85;;
66593;SDS011;53450;42.584;23.366;2023-09-30T09:55:25;16.48;;;4.93;;
66593;SDS011;53450;42.584;23.366;2023-09-30T10:01:10;13.95;;;5.18;;
66593;SDS011;53450;42.584;23.366;2023-09-30T10:03:36;15.65;;;5.82;;
66593;SDS011;53450;42.584;23.366;2023-09-30T10:06:03;18.15;;;4.57;;
66593;SDS011;53450;42.584;23.366;2023-09-30T10:08:48;15.05;;;4.95;;
66593;SDS011;53450;42.584;23.366;2023-09-30T10:11:17;10.43;;;4.70;;
66593;SDS011;53450;42.584;23.366;2023-09-30T10:13:53;10.55;;;4.30;;
66593;SDS011;53450;42.584;23.366;2023-09-30T10:19:11;10.23;;;5.00;;
66593;SDS011;53450;42.584;23.366;2023-09-30T10:24:41;14.75;;;4.05;;
66593;SDS011;53450;42.584;23.366;2023-09-30T10:30:13;13.20;;;7.13;;
66593;SDS011;53450;42.584;23.366;2023-09-30T10:41:48;20.27;;;4.78;;
66593;SDS011;53450;42.584;23.366;2023-09-30T10:44:34;9.25;;;4.47;;
66593;SDS011;53450;42.584;23.366;2023-09-30T10:47:34;9.45;;;4.88;;
66593;SDS011;53450;42.584;23.366;2023-09-30T10:49:52;21.08;;;6.60;;
66593;SDS011;53450;42.584;23.366;2023-09-30T10:52:22;22.58;;;5.95;;
66593;SDS011;53450;42.584;23.366;2023-09-30T10:54:49;9.23;;;4.13;;
66593;SDS011;53450;42.584;23.366;2023-09-30T11:00:10;32.72;;;4.25;;
66593;SDS011;53450;42.584;23.366;2023-09-30T11:02:49;12.43;;;3.25;;
66593;SDS011;53450;42.584;23.366;2023-09-30T11:05:16;17.73;;;3.63;;
66593;SDS011;53450;42.584;23.366;2023-09-30T11:07:43;11.93;;;3.50;;
66593;SDS011;53450;42.584;23.366;2023-09-30T11:10:15;6.93;;;2.90;;
66593;SDS011;53450;42.584;23.366;2023-09-30T11:12:53;5.03;;;3.03;;
66593;SDS011;53450;42.584;23.366;2023-09-30T11:15:19;18.15;;;3.83;;
66593;SDS011;53450;42.584;23.366;2023-09-30T11:17:46;10.15;;;3.17;;
66593;SDS011;53450;42.584;23.366;2023-09-30T11:20:12;4.18;;;2.70;;
66593;SDS011;53450;42.584;23.366;2023-09-30T11:22:37;8.60;;;2.75;;
66593;SDS011;53450;42.584;23.366;2023-09-30T11:25:06;6.75;;;3.22;;
66593;SDS011;53450;42.584;23.366;2023-09-30T11:27:41;9.75;;;2.88;;
66593;SDS011;53450;42.584;23.366;2023-09-30T11:30:07;6.20;;;2.80;;
66593;SDS011;53450;42.584;23.366;2023-09-30T11:32:33;11.85;;;2.72;;
66593;SDS011;53450;42.584;23.366;2023-09-30T11:34:59;15.82;;;3.13;;
66593;SDS011;53450;42.584;23.366;2023-09-30T11:37:34;7.55;;;2.95;;
66593;SDS011;53450;42.584;23.366;2023-09-30T11:40:12;17.95;;;3.42;;
66593;SDS011;53450;42.584;23.366;2023-09-30T11:42:39;8.50;;;3.05;;
66593;SDS011;53450;42.584;23.366;2023-09-30T11:45:18;3.88;;;2.90;;
66593;SDS011;53450;42.584;23.366;2023-09-30T11:47:45;9.90;;;3.15;;
66593;SDS011;53450;42.584;23.366;2023-09-30T11:50:11;10.20;;;3.47;;
66593;SDS011;53450;42.584;23.366;2023-09-30T11:52:38;24.17;;;4.43;;
66593;SDS011;53450;42.584;23.366;2023-09-30T11:55:05;6.88;;;3.75;;
66593;SDS011;53450;42.584;23.366;2023-09-30T11:57:56;12.35;;;3.38;;
66593;SDS011;53450;42.584;23.366;2023-09-30T12:00:47;18.23;;;3.83;;
66593;SDS011;53450;42.584;23.366;2023-09-30T12:03:16;20.02;;;4.32;;
66593;SDS011;53450;42.584;23.366;2023-09-30T12:05:41;8.23;;;3.60;;
66593;SDS011;53450;42.584;23.366;2023-09-30T12:08:08;7.05;;;3.30;;
66593;SDS011;53450;42.584;23.366;2023-09-30T12:10:33;12.82;;;3.83;;
66593;SDS011;53450;42.584;23.366;2023-09-30T12:13:24;12.68;;;3.63;;
66593;SDS011;53450;42.584;23.366;2023-09-30T12:16:16;5.82;;;2.92;;
66593;SDS011;53450;42.584;23.366;2023-09-30T12:19:07;17.05;;;3.75;;
66593;SDS011;53450;42.584;23.366;2023-09-30T12:21:58;8.77;;;4.00;;
66593;SDS011;53450;42.584;23.366;2023-09-30T12:24:24;10.48;;;3.55;;
66593;SDS011;53450;42.584;23.366;2023-09-30T12:26:50;11.88;;;3.72;;
66593;SDS011;53450;42.584;23.366;2023-09-30T12:29:42;13.77;;;3.92;;
66593;SDS011;53450;42.584;23.366;2023-09-30T12:32:33;14.98;;;4.25;;
66593;SDS011;53450;42.584;23.366;2023-09-30T12:34:58;17.35;;;4.50;;
66593;SDS011;53450;42.584;23.366;2023-09-30T12:37:24;24.17;;;5.53;;
66593;SDS011;53450;42.584;23.366;2023-09-30T12:39:50;12.20;;;3.90;;
66593;SDS011;53450;42.584;23.366;2023-09-30T12:42:16;12.45;;;3.80;;
66593;SDS011;53450;42.584;23.366;2023-09-30T12:44:42;13.10;;;3.80;;
66593;SDS011;53450;42.584;23.366;2023-09-30T12:47:07;10.05;;;4.20;;
66593;SDS011;53450;42.584;23.366;2023-09-30T12:49:33;12.60;;;4.68;;
66593;SDS011;53450;42.584;23.366;2023-09-30T12:51:58;6.20;;;3.67;;
66593;SDS011;53450;42.584;23.366;2023-09-30T12:54:25;10.77;;;4.70;;
66593;SDS011;53450;42.584;23.366;2023-09-30T12:56:53;13.07;;;4.10;;
66593;SDS011;53450;42.584;23.366;2023-09-30T12:59:18;8.70;;;4.38;;
66593;SDS011;53450;42.584;23.366;2023-09-30T13:01:45;11.95;;;4.70;;
66593;SDS011;53450;42.584;23.366;2023-09-30T13:04:11;19.35;;;4.18;;
66593;SDS011;53450;42.584;23.366;2023-09-30T13:06:37;8.73;;;4.00;;
66593;SDS011;53450;42.584;23.366;2023-09-30T13:09:03;16.83;;;6.15;;
66593;SDS011;53450;42.584;23.366;2023-09-30T13:11:30;9.93;;;4.03;;
66593;SDS011;53450;42.584;23.366;2023-09-30T13:14:20;8.80;;;4.20;;
66593;SDS011;53450;42.584;23.366;2023-09-30T13:16:50;6.63;;;3.70;;
66593;SDS011;53450;42.584;23.366;2023-09-30T13:19:15;9.13;;;4.03;;
66593;SDS011;53450;42.584;23.366;2023-09-30T13:21:46;13.05;;;3.97;;
66593;SDS011;53450;42.584;23.366;2023-09-30T13:24:13;13.63;;;3.97;;
66593;SDS011;53450;42.584;23.366;2023-09-30T13:26:39;7.53;;;4.15;;
66593;SDS011;53450;42.584;23.366;2023-09-30T13:29:04;16.23;;;3.97;;
66593;SDS011;53450;42.584;23.366;2023-09-30T13:31:30;9.25;;;3.80;;
66593;SDS011;53450;42.584;23.366;2023-09-30T13:33:56;10.57;;;3.90;;
66593;SDS011;53450;42.584;23.366;2023-09-30T13:36:22;7.82;;;4.20;;
66593;SDS011;53450;42.584;23.366;2023-09-30T13:38:48;13.30;;;4.10;;
66593;SDS011;53450;42.584;23.366;2023-09-30T13:41:14;7.78;;;3.53;;
66593;SDS011;53450;42.584;23.366;2023-09-30T13:43:41;14.45;;;4.18;;
66593;SDS011;53450;42.584;23.366;2023-09-30T13:49:23;18.90;;;5.03;;
66593;SDS011;53450;42.584;23.366;2023-09-30T13:51:49;11.70;;;5.25;;
66593;SDS011;53450;42.584;23.366;2023-09-30T13:54:14;11.07;;;4.93;;
66593;SDS011;53450;42.584;23.366;2023-09-30T13:56:40;17.80;;;4.53;;
66593;SDS011;53450;42.584;23.366;2023-09-30T13:59:05;6.30;;;4.05;;
66593;SDS011;53450;42.584;23.366;2023-09-30T14:01:31;11.10;;;4.57;;
66593;SDS011;53450;42.584;23.366;2023-09-30T14:03:57;23.00;;;4.63;;
66593;SDS011;53450;42.584;23.366;2023-09-30T14:06:23;6.38;;;4.35;;
66593;SDS011;53450;42.584;23.366;2023-09-30T14:08:49;8.25;;;3.83;;
66593;SDS011;53450;42.584;23.366;2023-09-30T14:11:15;22.80;;;4.38;;
66593;SDS011;53450;42.584;23.366;2023-09-30T14:13:42;14.43;;;4.80;;
66593;SDS011;53450;42.584;23.366;2023-09-30T14:16:10;4.85;;;4.05;;
66593;SDS011;53450;42.584;23.366;2023-09-30T14:18:36;10.18;;;4.60;;
66593;SDS011;53450;42.584;23.366;2023-09-30T14:21:04;12.27;;;4.70;;
66593;SDS011;53450;42.584;23.366;2023-09-30T14:23:31;12.10;;;4.53;;
66593;SDS011;53450;42.584;23.366;2023-09-30T14:25:57;10.10;;;4.45;;
66593;SDS011;53450;42.584;23.366;2023-09-30T14:28:27;18.85;;;5.55;;
66593;SDS011;53450;42.584;23.366;2023-09-30T14:30:53;18.30;;;6.43;;
66593;SDS011;53450;42.584;23.366;2023-09-30T14:33:19;53.40;;;10.63;;
66593;SDS011;53450;42.584;23.366;2023-09-30T14:35:44;17.15;;;6.28;;
66593;SDS011;53450;42.584;23.366;2023-09-30T14:38:10;9.43;;;4.57;;
66593;SDS011;53450;42.584;23.366;2023-09-30T14:40:40;10.95;;;5.25;;
66593;SDS011;53450;42.584;23.366;2023-09-30T14:43:09;16.98;;;5.03;;
66593;SDS011;53450;42.584;23.366;2023-09-30T14:46:01;11.73;;;3.95;;
66593;SDS011;53450;42.584;23.366;2023-09-30T14:48:28;4.85;;;3.60;;
66593;SDS011;53450;42.584;23.366;2023-09-30T14:50:54;5.43;;;3.85;;
66593;SDS011;53450;42.584;23.366;2023-09-30T14:53:20;14.77;;;4.25;;
66593;SDS011;53450;42.584;23.366;2023-09-30T14:55:46;9.13;;;4.03;;
66593;SDS011;53450;42.584;23.366;2023-09-30T14:58:11;6.55;;;3.83;;
66593;SDS011;53450;42.584;23.366;2023-09-30T15:00:37;7.85;;;3.83;;
66593;SDS011;53450;42.584;23.366;2023-09-30T15:03:03;7.90;;;3.92;;